Time,TemperatureF,DewpointF,PressureIn,WindDirection,WindDirectionDegrees,WindSpeedMPH,WindSpeedGustMPH,Humidity,HourlyPrecipIn,Conditions,Clouds,dailyrainin,SoftwareType,DateUTC
2013-02-10 00:01:00,10.0,7.0,30.12,ESE,121,0.0,0.0,87,0.00,,,0.00,,2013-02-10 05:01:00,
2013-02-10 00:11:00,10.0,7.0,30.12,ESE,121,0.0,0.0,87,0.00,,,0.00,,2013-02-10 05:11:00,
2013-02-10 00:23:00,9.0,6.0,30.13,ESE,121,0.0,1.0,87,0.00,,,0.00,,2013-02-10 05:23:00,
2013-02-10 00:32:00,9.0,6.0,30.13,ESE,121,0.0,1.0,87,0.00,,,0.00,,2013-02-10 05:32:00,
2013-02-10 00:42:00,9.0,6.0,30.13,ESE,121,0.0,1.0,87,0.00,,,0.00,,2013-02-10 05:42:00,
2013-02-10 00:52:00,9.0,6.0,30.14,ESE,121,0.0,1.0,87,0.00,,,0.00,,2013-02-10 05:52:00,
2013-02-10 01:02:00,9.0,6.0,30.14,ESE,121,0.0,1.0,87,0.00,,,0.00,,2013-02-10 06:02:00,
2013-02-10 01:11:00,9.0,6.0,30.14,ESE,121,0.0,1.0,87,0.00,,,0.00,,2013-02-10 06:11:00,
2013-02-10 01:21:00,9.0,6.0,30.15,ESE,121,0.0,1.0,87,0.00,,,0.00,,2013-02-10 06:21:00,
2013-02-10 01:32:00,9.0,6.0,30.15,ESE,121,0.0,1.0,87,0.00,,,0.00,,2013-02-10 06:32:00,
2013-02-10 01:42:00,9.0,6.0,30.15,ESE,121,0.0,1.0,87,0.00,,,0.00,,2013-02-10 06:42:00,
2013-02-10 01:52:00,10.0,7.0,30.15,NE,36,0.0,1.0,87,0.00,,,0.00,,2013-02-10 06:52:00,
2013-02-10 02:01:00,10.0,7.0,30.15,NE,36,0.0,1.0,87,0.00,,,0.00,,2013-02-10 07:01:00,
2013-02-10 02:11:00,10.0,7.0,30.15,NE,36,0.0,1.0,87,0.00,,,0.00,,2013-02-10 07:11:00,
2013-02-10 02:21:00,10.0,7.0,30.17,ENE,64,0.0,2.0,87,0.00,,,0.00,,2013-02-10 07:21:00,
2013-02-10 02:32:00,10.0,7.0,30.17,ENE,64,0.0,2.0,87,0.00,,,0.00,,2013-02-10 07:32:00,
2013-02-10 02:42:00,10.0,7.0,30.17,ENE,64,0.0,2.0,87,0.00,,,0.00,,2013-02-10 07:42:00,
2013-02-10 02:52:00,9.0,6.0,30.18,ENE,64,0.0,1.0,86,0.00,,,0.00,,2013-02-10 07:52:00,
2013-02-10 03:01:00,9.0,6.0,30.18,ENE,64,0.0,1.0,86,0.00,,,0.00,,2013-02-10 08:01:00,
2013-02-10 03:11:00,9.0,6.0,30.18,ENE,64,0.0,1.0,86,0.00,,,0.00,,2013-02-10 08:11:00,
2013-02-10 03:21:00,9.0,6.0,30.18,ENE,64,0.0,1.0,86,0.00,,,0.00,,2013-02-10 08:21:00,
2013-02-10 03:32:00,9.0,6.0,30.18,ENE,64,0.0,1.0,86,0.00,,,0.00,,2013-02-10 08:32:00,
2013-02-10 03:43:00,9.0,6.0,30.18,ENE,64,0.0,1.0,86,0.00,,,0.00,,2013-02-10 08:43:00,
2013-02-10 03:52:00,8.0,5.0,30.19,ENE,64,0.0,0.0,86,0.00,,,0.00,,2013-02-10 08:52:00,
2013-02-10 04:02:00,8.0,5.0,30.19,ENE,64,0.0,0.0,86,0.00,,,0.00,,2013-02-10 09:02:00,
2013-02-10 04:11:00,8.0,5.0,30.19,ENE,64,0.0,0.0,86,0.00,,,0.00,,2013-02-10 09:11:00,
2013-02-10 04:21:00,6.0,2.0,30.19,ENE,64,0.0,0.0,85,0.00,,,0.00,,2013-02-10 09:21:00,
2013-02-10 04:32:00,6.0,2.0,30.19,ENE,64,0.0,0.0,85,0.00,,,0.00,,2013-02-10 09:32:00,
2013-02-10 04:52:00,4.0,1.0,30.21,ENE,64,0.0,0.0,86,0.00,,,0.00,,2013-02-10 09:52:00,
2013-02-10 05:21:00,3.0,0.0,30.22,ENE,64,0.0,0.0,86,0.00,,,0.00,,2013-02-10 10:21:00,
2013-02-10 05:52:00,2.0,-1.0,30.24,ENE,64,0.0,0.0,86,0.00,,,0.00,,2013-02-10 10:52:00,
2013-02-10 06:22:00,2.0,-1.0,30.25,ENE,64,0.0,0.0,86,0.00,,,0.00,,2013-02-10 11:22:00,
2013-02-10 06:52:00,1.0,-2.0,30.27,ENE,64,0.0,0.0,86,0.00,,,0.00,,2013-02-10 11:52:00,
2013-02-10 07:21:00,0.0,-3.0,30.28,ENE,64,0.0,0.0,86,0.00,,,0.00,,2013-02-10 12:21:00,
2013-02-10 07:52:00,-1.0,-4.0,30.30,ENE,64,0.0,0.0,85,0.00,,,0.00,,2013-02-10 12:52:00,
2013-02-10 08:21:00,0.0,-3.0,30.31,ENE,64,0.0,0.0,87,0.00,,,0.00,,2013-02-10 13:21:00,
2013-02-10 08:52:00,3.0,0.0,30.32,ENE,64,0.0,0.0,88,0.00,,,0.00,,2013-02-10 13:52:00,
2013-02-10 09:21:00,8.0,5.0,30.32,ENE,64,0.0,0.0,88,0.00,,,0.00,,2013-02-10 14:21:00,
2013-02-10 09:32:00,8.0,5.0,30.32,ENE,64,0.0,0.0,88,0.00,,,0.00,,2013-02-10 14:32:00,
2013-02-10 09:52:00,15.0,12.0,30.32,South,178,0.0,0.0,86,0.00,,,0.00,,2013-02-10 14:52:00,
2013-02-10 10:02:00,15.0,12.0,30.32,South,178,0.0,0.0,86,0.00,,,0.00,,2013-02-10 15:02:00,
2013-02-10 10:22:00,19.0,15.0,30.34,WNW,297,0.0,4.0,84,0.00,,,0.00,,2013-02-10 15:22:00,
2013-02-10 10:52:00,22.0,17.0,30.34,NNE,24,0.0,3.0,82,0.00,,,0.00,,2013-02-10 15:52:00,
2013-02-10 11:12:00,25.0,19.0,30.34,NNE,15,1.0,2.0,79,0.00,,,0.00,,2013-02-10 16:12:00,
2013-02-10 11:22:00,25.0,19.0,30.34,NNE,15,1.0,2.0,79,0.00,,,0.00,,2013-02-10 16:22:00,
2013-02-10 11:42:00,27.0,21.0,30.33,North,10,1.0,3.0,77,0.00,,,0.00,,2013-02-10 16:42:00,
2013-02-10 11:52:00,27.0,21.0,30.33,North,10,1.0,3.0,77,0.00,,,0.00,,2013-02-10 16:52:00,
2013-02-10 12:22:00,29.0,22.0,30.33,NNW,341,0.0,3.0,76,0.00,,,0.00,,2013-02-10 17:22:00,
2013-02-10 12:42:00,31.0,23.0,30.32,NNW,342,0.0,2.0,73,0.00,,,0.00,,2013-02-10 17:42:00,
2013-02-10 12:53:00,31.0,23.0,30.32,NNW,342,0.0,2.0,73,0.00,,,0.00,,2013-02-10 17:53:00,
2013-02-10 13:12:00,32.0,23.0,30.31,NNE,13,1.0,3.0,69,0.00,,,0.00,,2013-02-10 18:12:00,
2013-02-10 13:22:00,32.0,23.0,30.31,NNE,13,1.0,3.0,69,0.00,,,0.00,,2013-02-10 18:22:00,
2013-02-10 13:52:00,32.0,23.0,30.29,North,351,0.0,3.0,70,0.01,,,0.01,,2013-02-10 18:52:00,
2013-02-10 14:12:00,32.0,23.0,30.28,South,178,0.0,2.0,68,0.04,,,0.04,,2013-02-10 19:12:00,
2013-02-10 14:22:00,32.0,23.0,30.28,South,178,0.0,2.0,68,0.04,,,0.04,,2013-02-10 19:22:00,
2013-02-10 14:43:00,32.0,23.0,30.28,SW,216,0.0,2.0,69,0.04,,,0.05,,2013-02-10 19:43:00,
2013-02-10 14:52:00,32.0,23.0,30.28,SW,216,0.0,2.0,69,0.04,,,0.05,,2013-02-10 19:52:00,
2013-02-10 15:22:00,32.0,23.0,30.28,SE,139,0.0,2.0,69,0.02,,,0.06,,2013-02-10 20:22:00,
2013-02-10 15:42:00,32.0,23.0,30.29,SSW,193,1.0,2.0,69,0.03,,,0.08,,2013-02-10 20:42:00,
2013-02-10 15:52:00,32.0,23.0,30.29,SSW,193,1.0,2.0,69,0.03,,,0.08,,2013-02-10 20:52:00,
2013-02-10 16:22:00,31.0,24.0,30.30,SSW,194,0.0,1.0,75,0.02,,,0.08,,2013-02-10 21:22:00,
2013-02-10 16:42:00,29.0,23.0,30.30,SSW,194,0.0,0.0,78,0.00,,,0.08,,2013-02-10 21:42:00,
2013-02-10 16:52:00,29.0,23.0,30.30,SSW,194,0.0,0.0,78,0.00,,,0.08,,2013-02-10 21:52:00,
2013-02-10 17:12:00,26.0,20.0,30.30,SSW,194,0.0,0.0,79,0.00,,,0.08,,2013-02-10 22:12:00,
2013-02-10 17:22:00,26.0,20.0,30.30,SSW,194,0.0,0.0,79,0.00,,,0.08,,2013-02-10 22:22:00,
2013-02-10 17:42:00,24.0,19.0,30.31,SSW,194,0.0,0.0,80,0.00,,,0.08,,2013-02-10 22:42:00,
2013-02-10 17:53:00,24.0,19.0,30.31,SSW,194,0.0,0.0,80,0.00,,,0.08,,2013-02-10 22:53:00,
2013-02-10 18:22:00,21.0,17.0,30.32,SSW,194,0.0,0.0,83,0.00,,,0.08,,2013-02-10 23:22:00,
2013-02-10 18:42:00,19.0,15.0,30.32,SSW,194,0.0,0.0,84,0.00,,,0.08,,2013-02-10 23:42:00,
2013-02-10 18:52:00,19.0,15.0,30.32,SSW,194,0.0,0.0,84,0.00,,,0.08,,2013-02-10 23:52:00,
2013-02-10 19:11:00,18.0,14.0,30.31,SSW,194,0.0,0.0,83,0.00,,,0.08,,2013-02-11 00:11:00,
2013-02-10 19:22:00,18.0,14.0,30.31,SSW,194,0.0,0.0,83,0.00,,,0.08,,2013-02-11 00:22:00,
2013-02-10 19:42:00,17.0,13.0,30.32,SSW,194,0.0,0.0,83,0.00,,,0.08,,2013-02-11 00:42:00,
2013-02-10 19:52:00,17.0,13.0,30.32,SSW,194,0.0,0.0,83,0.00,,,0.08,,2013-02-11 00:52:00,
2013-02-10 20:21:00,16.0,12.0,30.32,SSW,194,0.0,0.0,83,0.00,,,0.08,,2013-02-11 01:21:00,
2013-02-10 20:42:00,16.0,12.0,30.31,SSW,194,0.0,0.0,83,0.00,,,0.08,,2013-02-11 01:42:00,
2013-02-10 20:52:00,16.0,12.0,30.31,SSW,194,0.0,0.0,83,0.00,,,0.08,,2013-02-11 01:52:00,
2013-02-10 21:01:00,16.0,12.0,30.31,SSW,194,0.0,0.0,83,0.00,,,0.08,,2013-02-11 02:01:00,
2013-02-10 21:11:00,16.0,12.0,30.31,SSW,194,0.0,0.0,83,0.00,,,0.08,,2013-02-11 02:11:00,
2013-02-10 21:21:00,15.0,11.0,30.31,SSW,194,0.0,0.0,85,0.00,,,0.08,,2013-02-11 02:21:00,
2013-02-10 21:32:00,15.0,11.0,30.31,SSW,194,0.0,0.0,85,0.00,,,0.08,,2013-02-11 02:32:00,
2013-02-10 21:42:00,13.0,9.0,30.31,SSW,194,0.0,0.0,85,0.00,,,0.08,,2013-02-11 02:42:00,
2013-02-10 21:52:00,13.0,9.0,30.31,SSW,194,0.0,0.0,85,0.00,,,0.08,,2013-02-11 02:52:00,
2013-02-10 22:02:00,13.0,9.0,30.31,SSW,194,0.0,0.0,85,0.00,,,0.08,,2013-02-11 03:02:00,
2013-02-10 22:11:00,13.0,9.0,30.31,SSW,194,0.0,0.0,85,0.00,,,0.08,,2013-02-11 03:11:00,
2013-02-10 22:21:00,12.0,8.0,30.31,SSW,194,0.0,0.0,85,0.00,,,0.08,,2013-02-11 03:21:00,
2013-02-10 22:32:00,12.0,8.0,30.31,SSW,194,0.0,0.0,85,0.00,,,0.08,,2013-02-11 03:32:00,
2013-02-10 22:42:00,12.0,9.0,30.31,SSW,194,0.0,0.0,86,0.00,,,0.08,,2013-02-11 03:42:00,
2013-02-10 22:52:00,12.0,9.0,30.31,SSW,194,0.0,0.0,86,0.00,,,0.08,,2013-02-11 03:52:00,
2013-02-10 23:01:00,12.0,9.0,30.31,SSW,194,0.0,0.0,86,0.00,,,0.08,,2013-02-11 04:01:00,
2013-02-10 23:11:00,12.0,9.0,30.31,SSW,194,0.0,0.0,86,0.00,,,0.08,,2013-02-11 04:11:00,
2013-02-10 23:22:00,11.0,8.0,30.31,SSW,194,0.0,0.0,86,0.00,,,0.08,,2013-02-11 04:22:00,
2013-02-10 23:32:00,11.0,8.0,30.31,SSW,194,0.0,0.0,86,0.00,,,0.08,,2013-02-11 04:32:00,
2013-02-10 23:42:00,11.0,8.0,30.31,SSW,194,0.0,0.0,86,0.00,,,0.08,,2013-02-11 04:42:00,
2013-02-10 23:52:00,12.0,8.0,30.31,SSW,194,0.0,0.0,85,0.00,,,0.08,,2013-02-11 04:52:00,